sensor_id;sensor_type;location;lat;lon;timestamp;temperature;humidity
47961;DHT22;33721;48.852;9.936;2023-03-14T00:00:14;8.90;99.90
47961;DHT22;33721;48.852;9.936;2023-03-14T00:02:41;9.00;99.90
47961;DHT22;33721;48.852;9.936;2023-03-14T00:05:07;8.80;99.90
47961;DHT22;33721;48.852;9.936;2023-03-14T00:07:37;8.70;99.90
47961;DHT22;33721;48.852;9.936;2023-03-14T00:10:14;8.90;99.90
47961;DHT22;33721;48.852;9.936;2023-03-14T00:12:41;8.80;99.90
47961;DHT22;33721;48.852;9.936;2023-03-14T00:15:07;9.00;99.90
47961;DHT22;33721;48.852;9.936;2023-03-14T00:17:34;9.10;99.90
47961;DHT22;33721;48.852;9.936;2023-03-14T00:20:01;9.10;99.90
47961;DHT22;33721;48.852;9.936;2023-03-14T00:22:34;9.30;99.90
47961;DHT22;33721;48.852;9.936;2023-03-14T00:24:59;8.90;99.90
47961;DHT22;33721;48.852;9.936;2023-03-14T00:27:25;9.30;99.90
47961;DHT22;33721;48.852;9.936;2023-03-14T00:29:51;9.30;99.90
47961;DHT22;33721;48.852;9.936;2023-03-14T00:32:17;9.30;99.90
47961;DHT22;33721;48.852;9.936;2023-03-14T00:34:42;9.30;99.90
47961;DHT22;33721;48.852;9.936;2023-03-14T00:37:08;9.30;99.90
47961;DHT22;33721;48.852;9.936;2023-03-14T00:39:34;9.40;99.90
47961;DHT22;33721;48.852;9.936;2023-03-14T00:41:59;9.40;99.90
47961;DHT22;33721;48.852;9.936;2023-03-14T00:44:25;9.30;99.90
47961;DHT22;33721;48.852;9.936;2023-03-14T00:46:51;9.40;99.90
47961;DHT22;33721;48.852;9.936;2023-03-14T00:49:16;9.40;99.90
47961;DHT22;33721;48.852;9.936;2023-03-14T00:51:42;9.40;99.90
47961;DHT22;33721;48.852;9.936;2023-03-14T00:54:08;9.30;99.90
47961;DHT22;33721;48.852;9.936;2023-03-14T00:56:33;9.50;99.90
47961;DHT22;33721;48.852;9.936;2023-03-14T00:58:59;9.50;99.90
47961;DHT22;33721;48.852;9.936;2023-03-14T01:01:24;9.60;99.90
47961;DHT22;33721;48.852;9.936;2023-03-14T01:03:55;9.60;99.90
47961;DHT22;33721;48.852;9.936;2023-03-14T01:06:23;9.50;99.90
47961;DHT22;33721;48.852;9.936;2023-03-14T01:08:50;9.40;99.90
47961;DHT22;33721;48.852;9.936;2023-03-14T01:11:22;9.40;99.90
47961;DHT22;33721;48.852;9.936;2023-03-14T01:13:48;9.40;99.90
47961;DHT22;33721;48.852;9.936;2023-03-14T01:16:14;9.40;99.90
47961;DHT22;33721;48.852;9.936;2023-03-14T01:18:41;9.40;99.90
47961;DHT22;33721;48.852;9.936;2023-03-14T01:21:21;9.30;99.90
47961;DHT22;33721;48.852;9.936;2023-03-14T01:23:47;9.30;99.90
47961;DHT22;33721;48.852;9.936;2023-03-14T01:26:17;9.30;99.90
47961;DHT22;33721;48.852;9.936;2023-03-14T01:28:44;9.10;99.90
47961;DHT22;33721;48.852;9.936;2023-03-14T01:31:11;9.10;99.90
47961;DHT22;33721;48.852;9.936;2023-03-14T01:33:38;9.10;99.90
47961;DHT22;33721;48.852;9.936;2023-03-14T01:36:04;9.20;99.90
47961;DHT22;33721;48.852;9.936;2023-03-14T01:38:31;9.10;99.90
47961;DHT22;33721;48.852;9.936;2023-03-14T01:40:57;9.10;99.90
47961;DHT22;33721;48.852;9.936;2023-03-14T01:43:23;9.00;99.90
47961;DHT22;33721;48.852;9.936;2023-03-14T01:54:48;8.90;99.90
47961;DHT22;33721;48.852;9.936;2023-03-14T01:57:25;9.00;99.90
47961;DHT22;33721;48.852;9.936;2023-03-14T02:00:09;8.80;99.90
47961;DHT22;33721;48.852;9.936;2023-03-14T02:02:38;9.00;99.90
47961;DHT22;33721;48.852;9.936;2023-03-14T02:05:05;9.00;99.90
47961;DHT22;33721;48.852;9.936;2023-03-14T02:07:45;8.90;99.90
47961;DHT22;33721;48.852;9.936;2023-03-14T02:10:12;8.90;99.90
47961;DHT22;33721;48.852;9.936;2023-03-14T02:12:40;8.90;99.90
47961;DHT22;33721;48.852;9.936;2023-03-14T02:15:06;8.80;99.90
47961;DHT22;33721;48.852;9.936;2023-03-14T02:17:31;8.90;99.90
47961;DHT22;33721;48.852;9.936;2023-03-14T02:22:35;8.70;99.90
47961;DHT22;33721;48.852;9.936;2023-03-14T02:27:47;8.70;99.90
47961;DHT22;33721;48.852;9.936;2023-03-14T02:30:24;8.60;99.90
47961;DHT22;33721;48.852;9.936;2023-03-14T02:32:57;8.60;99.90
47961;DHT22;33721;48.852;9.936;2023-03-14T02:35:27;8.70;99.90
47961;DHT22;33721;48.852;9.936;2023-03-14T02:38:24;8.80;99.90
47961;DHT22;33721;48.852;9.936;2023-03-14T02:40:52;8.80;99.90
47961;DHT22;33721;48.852;9.936;2023-03-14T02:43:19;8.80;99.90
47961;DHT22;33721;48.852;9.936;2023-03-14T02:45:46;8.90;99.90
47961;DHT22;33721;48.852;9.936;2023-03-14T02:48:22;9.10;99.90
47961;DHT22;33721;48.852;9.936;2023-03-14T02:50:51;8.80;99.90
47961;DHT22;33721;48.852;9.936;2023-03-14T02:53:20;9.30;99.90
47961;DHT22;33721;48.852;9.936;2023-03-14T02:55:50;9.00;99.90
47961;DHT22;33721;48.852;9.936;2023-03-14T02:58:16;8.90;99.90
47961;DHT22;33721;48.852;9.936;2023-03-14T03:00:42;8.90;99.90
47961;DHT22;33721;48.852;9.936;2023-03-14T03:03:08;8.90;99.90
47961;DHT22;33721;48.852;9.936;2023-03-14T03:05:34;8.90;99.90
47961;DHT22;33721;48.852;9.936;2023-03-14T03:08:00;8.90;99.90
47961;DHT22;33721;48.852;9.936;2023-03-14T03:10:26;8.90;99.90
47961;DHT22;33721;48.852;9.936;2023-03-14T03:12:52;8.90;99.90
47961;DHT22;33721;48.852;9.936;2023-03-14T03:15:18;8.90;99.90
47961;DHT22;33721;48.852;9.936;2023-03-14T03:17:44;9.00;99.90
47961;DHT22;33721;48.852;9.936;2023-03-14T03:20:10;9.00;99.90
47961;DHT22;33721;48.852;9.936;2023-03-14T03:22:36;9.00;99.90
47961;DHT22;33721;48.852;9.936;2023-03-14T03:25:03;8.90;99.90
47961;DHT22;33721;48.852;9.936;2023-03-14T03:27:34;8.90;99.90
47961;DHT22;33721;48.852;9.936;2023-03-14T03:30:02;8.90;99.90
47961;DHT22;33721;48.852;9.936;2023-03-14T03:32:28;9.00;99.90
47961;DHT22;33721;48.852;9.936;2023-03-14T03:34:54;9.10;99.90
47961;DHT22;33721;48.852;9.936;2023-03-14T03:37:19;9.10;99.90
47961;DHT22;33721;48.852;9.936;2023-03-14T03:39:45;9.10;99.90
47961;DHT22;33721;48.852;9.936;2023-03-14T03:42:10;9.10;99.90
47961;DHT22;33721;48.852;9.936;2023-03-14T03:44:36;9.00;99.90
47961;DHT22;33721;48.852;9.936;2023-03-14T03:47:02;9.00;99.90
47961;DHT22;33721;48.852;9.936;2023-03-14T03:49:31;8.90;99.90
47961;DHT22;33721;48.852;9.936;2023-03-14T03:51:57;9.00;99.90
47961;DHT22;33721;48.852;9.936;2023-03-14T03:54:23;9.00;99.90
47961;DHT22;33721;48.852;9.936;2023-03-14T03:56:49;9.00;99.90
47961;DHT22;33721;48.852;9.936;2023-03-14T03:59:15;8.90;99.90
47961;DHT22;33721;48.852;9.936;2023-03-14T04:01:41;8.90;99.90
47961;DHT22;33721;48.852;9.936;2023-03-14T04:04:06;8.90;99.90
47961;DHT22;33721;48.852;9.936;2023-03-14T04:06:32;8.90;99.90
47961;DHT22;33721;48.852;9.936;2023-03-14T04:08:58;8.80;99.90
47961;DHT22;33721;48.852;9.936;2023-03-14T04:11:23;9.00;99.90
47961;DHT22;33721;48.852;9.936;2023-03-14T04:13:49;9.00;99.90
47961;DHT22;33721;48.852;9.936;2023-03-14T04:16:18;9.00;99.90
47961;DHT22;33721;48.852;9.936;2023-03-14T04:18:44;8.90;99.90
47961;DHT22;33721;48.852;9.936;2023-03-14T04:21:09;9.00;99.90
47961;DHT22;33721;48.852;9.936;2023-03-14T04:23:35;8.90;99.90
47961;DHT22;33721;48.852;9.936;2023-03-14T04:26:00;9.00;99.90
47961;DHT22;33721;48.852;9.936;2023-03-14T04:28:26;9.00;99.90
47961;DHT22;33721;48.852;9.936;2023-03-14T04:30:52;8.90;99.90
47961;DHT22;33721;48.852;9.936;2023-03-14T04:33:18;9.00;99.90
47961;DHT22;33721;48.852;9.936;2023-03-14T04:35:44;8.90;99.90
47961;DHT22;33721;48.852;9.936;2023-03-14T04:38:11;9.00;99.90
47961;DHT22;33721;48.852;9.936;2023-03-14T04:40:38;8.80;99.90
47961;DHT22;33721;48.852;9.936;2023-03-14T04:43:04;8.80;99.90
47961;DHT22;33721;48.852;9.936;2023-03-14T04:45:29;8.90;99.90
47961;DHT22;33721;48.852;9.936;2023-03-14T04:47:55;8.90;99.90
47961;DHT22;33721;48.852;9.936;2023-03-14T04:50:20;8.90;99.90
47961;DHT22;33721;48.852;9.936;2023-03-14T04:52:46;8.90;99.90
47961;DHT22;33721;48.852;9.936;2023-03-14T04:55:12;8.90;99.90
47961;DHT22;33721;48.852;9.936;2023-03-14T04:57:37;8.90;99.90
47961;DHT22;33721;48.852;9.936;2023-03-14T05:00:04;8.80;99.90
47961;DHT22;33721;48.852;9.936;2023-03-14T05:02:34;8.80;99.90
47961;DHT22;33721;48.852;9.936;2023-03-14T05:05:00;8.80;99.90
47961;DHT22;33721;48.852;9.936;2023-03-14T05:07:25;8.90;99.90
47961;DHT22;33721;48.852;9.936;2023-03-14T05:09:51;8.90;99.90
47961;DHT22;33721;48.852;9.936;2023-03-14T05:12:19;8.90;99.90
47961;DHT22;33721;48.852;9.936;2023-03-14T05:14:45;8.80;99.90
47961;DHT22;33721;48.852;9.936;2023-03-14T05:17:10;8.80;99.90
47961;DHT22;33721;48.852;9.936;2023-03-14T05:19:36;8.80;99.90
47961;DHT22;33721;48.852;9.936;2023-03-14T05:22:02;8.70;99.90
47961;DHT22;33721;48.852;9.936;2023-03-14T05:24:28;8.70;99.90
47961;DHT22;33721;48.852;9.936;2023-03-14T05:26:54;8.70;99.90
47961;DHT22;33721;48.852;9.936;2023-03-14T05:29:19;8.60;99.90
47961;DHT22;33721;48.852;9.936;2023-03-14T05:31:45;8.70;99.90
47961;DHT22;33721;48.852;9.936;2023-03-14T05:34:11;8.60;99.90
47961;DHT22;33721;48.852;9.936;2023-03-14T05:36:36;8.60;99.90
47961;DHT22;33721;48.852;9.936;2023-03-14T05:39:02;8.50;99.90
47961;DHT22;33721;48.852;9.936;2023-03-14T05:41:28;8.40;99.90
47961;DHT22;33721;48.852;9.936;2023-03-14T05:43:54;8.50;99.90
47961;DHT22;33721;48.852;9.936;2023-03-14T05:46:20;8.60;99.90
47961;DHT22;33721;48.852;9.936;2023-03-14T05:48:45;8.50;99.90
47961;DHT22;33721;48.852;9.936;2023-03-14T05:51:11;8.50;99.90
47961;DHT22;33721;48.852;9.936;2023-03-14T05:53:37;8.60;99.90
47961;DHT22;33721;48.852;9.936;2023-03-14T05:56:02;8.70;99.90
47961;DHT22;33721;48.852;9.936;2023-03-14T05:58:28;8.70;99.90
47961;DHT22;33721;48.852;9.936;2023-03-14T06:00:54;8.70;99.90
47961;DHT22;33721;48.852;9.936;2023-03-14T06:03:19;8.70;99.90
47961;DHT22;33721;48.852;9.936;2023-03-14T06:05:45;8.60;99.90
47961;DHT22;33721;48.852;9.936;2023-03-14T06:08:10;8.50;99.90
47961;DHT22;33721;48.852;9.936;2023-03-14T06:10:36;8.60;99.90
47961;DHT22;33721;48.852;9.936;2023-03-14T06:13:02;8.50;99.90
47961;DHT22;33721;48.852;9.936;2023-03-14T06:15:28;8.50;99.90
47961;DHT22;33721;48.852;9.936;2023-03-14T06:17:55;8.50;99.90
47961;DHT22;33721;48.852;9.936;2023-03-14T06:20:21;8.50;99.90
47961;DHT22;33721;48.852;9.936;2023-03-14T06:22:46;8.50;99.90
47961;DHT22;33721;48.852;9.936;2023-03-14T06:25:12;8.50;99.90
47961;DHT22;33721;48.852;9.936;2023-03-14T06:27:37;8.70;99.90
47961;DHT22;33721;48.852;9.936;2023-03-14T06:30:04;8.70;99.90
47961;DHT22;33721;48.852;9.936;2023-03-14T06:32:29;8.70;99.90
47961;DHT22;33721;48.852;9.936;2023-03-14T06:34:55;8.80;99.90
47961;DHT22;33721;48.852;9.936;2023-03-14T06:37:22;8.80;99.90
47961;DHT22;33721;48.852;9.936;2023-03-14T06:39:48;8.90;99.90
47961;DHT22;33721;48.852;9.936;2023-03-14T06:42:13;8.60;99.90
47961;DHT22;33721;48.852;9.936;2023-03-14T06:44:39;8.60;99.90
47961;DHT22;33721;48.852;9.936;2023-03-14T06:47:04;8.60;99.90
47961;DHT22;33721;48.852;9.936;2023-03-14T06:49:30;8.80;99.90
47961;DHT22;33721;48.852;9.936;2023-03-14T06:51:56;8.80;99.90
47961;DHT22;33721;48.852;9.936;2023-03-14T06:54:21;8.90;99.90
47961;DHT22;33721;48.852;9.936;2023-03-14T06:56:47;8.90;99.90
47961;DHT22;33721;48.852;9.936;2023-03-14T06:59:12;8.90;99.90
47961;DHT22;33721;48.852;9.936;2023-03-14T07:01:38;8.90;99.90
47961;DHT22;33721;48.852;9.936;2023-03-14T07:04:04;9.00;99.90
47961;DHT22;33721;48.852;9.936;2023-03-14T07:06:29;8.90;99.90
47961;DHT22;33721;48.852;9.936;2023-03-14T07:08:56;8.90;99.90
47961;DHT22;33721;48.852;9.936;2023-03-14T07:11:22;8.90;99.90
47961;DHT22;33721;48.852;9.936;2023-03-14T07:13:48;8.90;99.90
47961;DHT22;33721;48.852;9.936;2023-03-14T07:16:14;8.90;99.90
47961;DHT22;33721;48.852;9.936;2023-03-14T07:18:40;9.00;99.90
47961;DHT22;33721;48.852;9.936;2023-03-14T07:21:06;9.00;99.90
47961;DHT22;33721;48.852;9.936;2023-03-14T07:23:33;9.00;99.90
47961;DHT22;33721;48.852;9.936;2023-03-14T07:25:59;9.10;99.90
47961;DHT22;33721;48.852;9.936;2023-03-14T07:28:24;9.10;99.90
47961;DHT22;33721;48.852;9.936;2023-03-14T07:30:50;9.30;99.90
47961;DHT22;33721;48.852;9.936;2023-03-14T07:33:16;9.30;99.90
47961;DHT22;33721;48.852;9.936;2023-03-14T07:35:42;9.30;99.90
47961;DHT22;33721;48.852;9.936;2023-03-14T07:38:07;9.40;99.90
47961;DHT22;33721;48.852;9.936;2023-03-14T07:40:33;9.50;99.90
47961;DHT22;33721;48.852;9.936;2023-03-14T07:42:59;9.50;99.90
47961;DHT22;33721;48.852;9.936;2023-03-14T07:45:24;9.50;99.90
47961;DHT22;33721;48.852;9.936;2023-03-14T07:47:50;9.50;99.90
47961;DHT22;33721;48.852;9.936;2023-03-14T07:50:16;9.40;99.90
47961;DHT22;33721;48.852;9.936;2023-03-14T07:52:41;9.50;99.90
47961;DHT22;33721;48.852;9.936;2023-03-14T07:55:07;9.50;99.90
47961;DHT22;33721;48.852;9.936;2023-03-14T07:57:33;9.60;99.90
47961;DHT22;33721;48.852;9.936;2023-03-14T07:59:59;9.70;99.90
47961;DHT22;33721;48.852;9.936;2023-03-14T08:02:24;9.80;99.90
47961;DHT22;33721;48.852;9.936;2023-03-14T08:04:50;9.90;99.90
47961;DHT22;33721;48.852;9.936;2023-03-14T08:07:16;10.00;99.90
47961;DHT22;33721;48.852;9.936;2023-03-14T08:09:42;10.10;99.90
47961;DHT22;33721;48.852;9.936;2023-03-14T08:12:08;10.10;99.90
47961;DHT22;33721;48.852;9.936;2023-03-14T08:14:33;10.20;99.90
47961;DHT22;33721;48.852;9.936;2023-03-14T08:16:59;10.30;99.90
47961;DHT22;33721;48.852;9.936;2023-03-14T08:19:25;10.50;99.90
47961;DHT22;33721;48.852;9.936;2023-03-14T08:21:50;10.80;99.90
47961;DHT22;33721;48.852;9.936;2023-03-14T08:24:16;10.90;99.90
47961;DHT22;33721;48.852;9.936;2023-03-14T08:26:42;10.90;99.90
47961;DHT22;33721;48.852;9.936;2023-03-14T08:29:08;11.10;99.90
47961;DHT22;33721;48.852;9.936;2023-03-14T08:31:36;11.30;99.90
47961;DHT22;33721;48.852;9.936;2023-03-14T08:34:02;10.80;99.90
47961;DHT22;33721;48.852;9.936;2023-03-14T08:36:28;11.10;99.90
47961;DHT22;33721;48.852;9.936;2023-03-14T08:38:53;11.30;99.90
47961;DHT22;33721;48.852;9.936;2023-03-14T08:41:19;11.00;99.90
47961;DHT22;33721;48.852;9.936;2023-03-14T08:43:45;11.00;99.90
47961;DHT22;33721;48.852;9.936;2023-03-14T08:46:10;11.10;99.90
47961;DHT22;33721;48.852;9.936;2023-03-14T08:48:36;11.10;99.90
47961;DHT22;33721;48.852;9.936;2023-03-14T08:51:10;11.10;99.90
47961;DHT22;33721;48.852;9.936;2023-03-14T08:53:37;11.00;99.90
47961;DHT22;33721;48.852;9.936;2023-03-14T08:56:03;10.90;99.90
47961;DHT22;33721;48.852;9.936;2023-03-14T08:58:31;10.90;99.90
47961;DHT22;33721;48.852;9.936;2023-03-14T09:00:57;10.90;99.90
47961;DHT22;33721;48.852;9.936;2023-03-14T09:03:23;11.00;99.90
47961;DHT22;33721;48.852;9.936;2023-03-14T09:05:50;11.10;99.90
47961;DHT22;33721;48.852;9.936;2023-03-14T09:08:16;10.90;99.90
47961;DHT22;33721;48.852;9.936;2023-03-14T09:10:49;11.10;99.90
47961;DHT22;33721;48.852;9.936;2023-03-14T09:13:15;11.10;99.90
47961;DHT22;33721;48.852;9.936;2023-03-14T09:15:40;11.20;99.90
47961;DHT22;33721;48.852;9.936;2023-03-14T09:18:07;11.20;99.90
47961;DHT22;33721;48.852;9.936;2023-03-14T09:20:33;11.30;99.90
47961;DHT22;33721;48.852;9.936;2023-03-14T09:22:58;11.40;99.90
47961;DHT22;33721;48.852;9.936;2023-03-14T09:25:24;11.40;99.90
47961;DHT22;33721;48.852;9.936;2023-03-14T09:27:49;11.40;99.90
47961;DHT22;33721;48.852;9.936;2023-03-14T09:30:15;11.80;99.90
47961;DHT22;33721;48.852;9.936;2023-03-14T09:32:41;11.90;99.90
47961;DHT22;33721;48.852;9.936;2023-03-14T09:35:07;12.30;99.90
47961;DHT22;33721;48.852;9.936;2023-03-14T09:37:32;12.40;99.90
47961;DHT22;33721;48.852;9.936;2023-03-14T09:39:58;12.30;99.90
47961;DHT22;33721;48.852;9.936;2023-03-14T09:42:26;12.00;99.90
47961;DHT22;33721;48.852;9.936;2023-03-14T09:45:06;11.80;99.90
47961;DHT22;33721;48.852;9.936;2023-03-14T09:47:33;11.80;99.90
47961;DHT22;33721;48.852;9.936;2023-03-14T09:50:02;12.10;99.90
47961;DHT22;33721;48.852;9.936;2023-03-14T09:52:36;12.30;99.90
47961;DHT22;33721;48.852;9.936;2023-03-14T09:55:22;12.40;99.90
47961;DHT22;33721;48.852;9.936;2023-03-14T09:57:56;12.10;99.90
47961;DHT22;33721;48.852;9.936;2023-03-14T10:00:26;11.80;99.90
47961;DHT22;33721;48.852;9.936;2023-03-14T10:03:00;11.80;99.90
47961;DHT22;33721;48.852;9.936;2023-03-14T10:05:27;11.60;99.90
47961;DHT22;33721;48.852;9.936;2023-03-14T10:07:55;11.70;99.90
47961;DHT22;33721;48.852;9.936;2023-03-14T10:10:23;11.80;99.90
47961;DHT22;33721;48.852;9.936;2023-03-14T10:15:35;12.00;99.90
47961;DHT22;33721;48.852;9.936;2023-03-14T10:18:04;11.90;99.90
47961;DHT22;33721;48.852;9.936;2023-03-14T10:20:45;12.10;99.90
47961;DHT22;33721;48.852;9.936;2023-03-14T10:25:38;12.30;99.90
47961;DHT22;33721;48.852;9.936;2023-03-14T10:28:05;12.30;99.90
47961;DHT22;33721;48.852;9.936;2023-03-14T10:30:44;12.20;99.90
47961;DHT22;33721;48.852;9.936;2023-03-14T10:35:44;12.00;99.90
47961;DHT22;33721;48.852;9.936;2023-03-14T10:38:16;12.10;99.90
47961;DHT22;33721;48.852;9.936;2023-03-14T10:40:49;12.10;99.90
47961;DHT22;33721;48.852;9.936;2023-03-14T10:43:22;12.10;99.90
47961;DHT22;33721;48.852;9.936;2023-03-14T10:46:06;11.80;99.90
47961;DHT22;33721;48.852;9.936;2023-03-14T10:48:35;11.70;99.90
47961;DHT22;33721;48.852;9.936;2023-03-14T10:51:17;11.90;99.90
47961;DHT22;33721;48.852;9.936;2023-03-14T10:56:13;12.30;99.90
47961;DHT22;33721;48.852;9.936;2023-03-14T10:58:42;12.30;99.90
47961;DHT22;33721;48.852;9.936;2023-03-14T11:01:36;12.60;99.90
47961;DHT22;33721;48.852;9.936;2023-03-14T11:04:39;12.40;99.90
47961;DHT22;33721;48.852;9.936;2023-03-14T11:07:20;12.70;99.90
47961;DHT22;33721;48.852;9.936;2023-03-14T11:17:59;12.70;99.90
47961;DHT22;33721;48.852;9.936;2023-03-14T11:20:38;12.80;99.90
47961;DHT22;33721;48.852;9.936;2023-03-14T11:23:13;12.50;99.90
47961;DHT22;33721;48.852;9.936;2023-03-14T11:28:41;12.10;99.90
47961;DHT22;33721;48.852;9.936;2023-03-14T11:31:16;11.90;99.90
47961;DHT22;33721;48.852;9.936;2023-03-14T11:34:10;11.90;99.90
47961;DHT22;33721;48.852;9.936;2023-03-14T11:39:11;12.10;99.90
47961;DHT22;33721;48.852;9.936;2023-03-14T11:41:42;12.00;99.90
47961;DHT22;33721;48.852;9.936;2023-03-14T11:44:22;11.70;99.90
47961;DHT22;33721;48.852;9.936;2023-03-14T11:49:36;10.60;99.90
47961;DHT22;33721;48.852;9.936;2023-03-14T11:52:48;10.40;99.90
47961;DHT22;33721;48.852;9.936;2023-03-14T11:55:12;10.30;99.90
47961;DHT22;33721;48.852;9.936;2023-03-14T11:57:40;10.20;99.90
47961;DHT22;33721;48.852;9.936;2023-03-14T12:00:24;10.10;99.90
47961;DHT22;33721;48.852;9.936;2023-03-14T12:03:01;10.00;99.90
47961;DHT22;33721;48.852;9.936;2023-03-14T12:08:26;9.90;99.90
47961;DHT22;33721;48.852;9.936;2023-03-14T12:13:56;9.70;99.90
47961;DHT22;33721;48.852;9.936;2023-03-14T12:18:53;9.60;99.90
47961;DHT22;33721;48.852;9.936;2023-03-14T12:21:20;9.50;99.90
47961;DHT22;33721;48.852;9.936;2023-03-14T12:26:19;9.40;99.90
47961;DHT22;33721;48.852;9.936;2023-03-14T12:41:53;9.50;99.90
47961;DHT22;33721;48.852;9.936;2023-03-14T12:47:42;9.40;99.90
47961;DHT22;33721;48.852;9.936;2023-03-14T12:49:53;9.30;99.90
47961;DHT22;33721;48.852;9.936;2023-03-14T12:52:36;9.30;99.90
47961;DHT22;33721;48.852;9.936;2023-03-14T12:57:51;9.10;99.90
47961;DHT22;33721;48.852;9.936;2023-03-14T13:00:32;9.10;99.90
47961;DHT22;33721;48.852;9.936;2023-03-14T13:03:42;9.10;99.90
47961;DHT22;33721;48.852;9.936;2023-03-14T13:06:09;9.10;99.90
47961;DHT22;33721;48.852;9.936;2023-03-14T13:11:26;9.00;99.90
47961;DHT22;33721;48.852;9.936;2023-03-14T13:14:00;9.10;99.90
47961;DHT22;33721;48.852;9.936;2023-03-14T13:16:27;9.00;99.90
47961;DHT22;33721;48.852;9.936;2023-03-14T13:19:18;9.20;99.90
47961;DHT22;33721;48.852;9.936;2023-03-14T13:21:45;9.30;99.90
47961;DHT22;33721;48.852;9.936;2023-03-14T13:24:25;9.50;99.90
47961;DHT22;33721;48.852;9.936;2023-03-14T13:26:55;9.60;99.90
47961;DHT22;33721;48.852;9.936;2023-03-14T13:29:27;9.50;99.90
47961;DHT22;33721;48.852;9.936;2023-03-14T13:31:58;9.30;99.90
47961;DHT22;33721;48.852;9.936;2023-03-14T13:34:34;9.10;99.90
47961;DHT22;33721;48.852;9.936;2023-03-14T13:37:00;8.60;99.90
47961;DHT22;33721;48.852;9.936;2023-03-14T13:39:28;8.20;99.90
47961;DHT22;33721;48.852;9.936;2023-03-14T13:41:58;7.90;99.90
47961;DHT22;33721;48.852;9.936;2023-03-14T13:44:50;8.00;99.90
47961;DHT22;33721;48.852;9.936;2023-03-14T13:47:18;8.20;99.90
47961;DHT22;33721;48.852;9.936;2023-03-14T13:49:45;8.50;99.90
47961;DHT22;33721;48.852;9.936;2023-03-14T13:52:36;8.50;99.90
47961;DHT22;33721;48.852;9.936;2023-03-14T13:55:03;8.70;99.90
47961;DHT22;33721;48.852;9.936;2023-03-14T13:57:47;9.00;99.90
47961;DHT22;33721;48.852;9.936;2023-03-14T14:00:19;8.90;99.90
47961;DHT22;33721;48.852;9.936;2023-03-14T14:02:45;8.80;99.90
47961;DHT22;33721;48.852;9.936;2023-03-14T14:05:12;8.60;99.90
47961;DHT22;33721;48.852;9.936;2023-03-14T14:07:38;8.40;99.90
47961;DHT22;33721;48.852;9.936;2023-03-14T14:10:05;8.30;99.90
47961;DHT22;33721;48.852;9.936;2023-03-14T14:12:38;8.50;99.90
47961;DHT22;33721;48.852;9.936;2023-03-14T14:15:14;8.60;99.90
47961;DHT22;33721;48.852;9.936;2023-03-14T14:18:01;8.50;99.90
47961;DHT22;33721;48.852;9.936;2023-03-14T14:20:37;8.40;99.90
47961;DHT22;33721;48.852;9.936;2023-03-14T14:23:11;8.60;99.90
47961;DHT22;33721;48.852;9.936;2023-03-14T14:25:38;8.90;99.90
47961;DHT22;33721;48.852;9.936;2023-03-14T14:28:24;8.80;99.90
47961;DHT22;33721;48.852;9.936;2023-03-14T14:31:05;8.70;99.90
47961;DHT22;33721;48.852;9.936;2023-03-14T14:33:43;8.50;99.90
47961;DHT22;33721;48.852;9.936;2023-03-14T14:36:41;8.40;99.90
47961;DHT22;33721;48.852;9.936;2023-03-14T14:39:17;8.30;99.90
47961;DHT22;33721;48.852;9.936;2023-03-14T14:41:44;8.20;99.90
47961;DHT22;33721;48.852;9.936;2023-03-14T14:44:14;8.20;99.90
47961;DHT22;33721;48.852;9.936;2023-03-14T14:46:42;8.40;99.90
47961;DHT22;33721;48.852;9.936;2023-03-14T14:49:14;8.20;99.90
47961;DHT22;33721;48.852;9.936;2023-03-14T14:51:48;8.10;99.90
47961;DHT22;33721;48.852;9.936;2023-03-14T14:54:17;7.90;99.90
47961;DHT22;33721;48.852;9.936;2023-03-14T14:56:49;7.80;99.90
47961;DHT22;33721;48.852;9.936;2023-03-14T14:59:26;7.70;99.90
47961;DHT22;33721;48.852;9.936;2023-03-14T15:02:01;7.70;99.90
47961;DHT22;33721;48.852;9.936;2023-03-14T15:04:30;7.70;99.90
47961;DHT22;33721;48.852;9.936;2023-03-14T15:06:56;7.70;99.90
47961;DHT22;33721;48.852;9.936;2023-03-14T15:09:22;7.60;99.90
47961;DHT22;33721;48.852;9.936;2023-03-14T15:11:48;7.50;99.90
47961;DHT22;33721;48.852;9.936;2023-03-14T15:14:14;7.50;99.90
47961;DHT22;33721;48.852;9.936;2023-03-14T15:16:42;7.50;99.90
47961;DHT22;33721;48.852;9.936;2023-03-14T15:19:34;7.40;99.90
47961;DHT22;33721;48.852;9.936;2023-03-14T15:22:00;7.40;99.90
47961;DHT22;33721;48.852;9.936;2023-03-14T15:24:26;7.40;99.90
47961;DHT22;33721;48.852;9.936;2023-03-14T15:26:51;7.30;99.90
47961;DHT22;33721;48.852;9.936;2023-03-14T15:29:17;7.30;99.90
47961;DHT22;33721;48.852;9.936;2023-03-14T15:31:43;7.30;99.90
47961;DHT22;33721;48.852;9.936;2023-03-14T15:34:09;7.30;99.90
47961;DHT22;33721;48.852;9.936;2023-03-14T15:36:35;7.30;99.90
47961;DHT22;33721;48.852;9.936;2023-03-14T15:39:03;7.30;99.90
47961;DHT22;33721;48.852;9.936;2023-03-14T15:41:31;7.30;99.90
47961;DHT22;33721;48.852;9.936;2023-03-14T15:43:57;7.20;99.90
47961;DHT22;33721;48.852;9.936;2023-03-14T15:46:22;7.20;99.90
47961;DHT22;33721;48.852;9.936;2023-03-14T15:48:50;7.30;99.90
47961;DHT22;33721;48.852;9.936;2023-03-14T15:51:17;7.30;99.90
47961;DHT22;33721;48.852;9.936;2023-03-14T15:53:43;7.30;99.90
47961;DHT22;33721;48.852;9.936;2023-03-14T15:56:17;7.30;99.90
47961;DHT22;33721;48.852;9.936;2023-03-14T15:58:44;7.40;99.90
47961;DHT22;33721;48.852;9.936;2023-03-14T16:01:12;7.40;99.90
47961;DHT22;33721;48.852;9.936;2023-03-14T16:03:38;7.50;99.90
47961;DHT22;33721;48.852;9.936;2023-03-14T16:06:05;7.60;99.90
47961;DHT22;33721;48.852;9.936;2023-03-14T16:08:31;7.70;99.90
47961;DHT22;33721;48.852;9.936;2023-03-14T16:10:57;7.70;99.90
47961;DHT22;33721;48.852;9.936;2023-03-14T16:13:23;7.70;99.90
47961;DHT22;33721;48.852;9.936;2023-03-14T16:15:57;7.70;99.90
47961;DHT22;33721;48.852;9.936;2023-03-14T16:18:24;7.60;99.90
47961;DHT22;33721;48.852;9.936;2023-03-14T16:20:57;7.60;99.90
47961;DHT22;33721;48.852;9.936;2023-03-14T16:23:24;7.70;99.90
47961;DHT22;33721;48.852;9.936;2023-03-14T16:25:51;7.70;99.90
47961;DHT22;33721;48.852;9.936;2023-03-14T16:28:17;7.70;99.90
47961;DHT22;33721;48.852;9.936;2023-03-14T16:30:42;7.70;99.90
47961;DHT22;33721;48.852;9.936;2023-03-14T16:33:08;7.70;99.90
47961;DHT22;33721;48.852;9.936;2023-03-14T16:35:38;7.70;99.90
47961;DHT22;33721;48.852;9.936;2023-03-14T16:38:04;7.70;99.90
47961;DHT22;33721;48.852;9.936;2023-03-14T16:40:30;7.70;99.90
47961;DHT22;33721;48.852;9.936;2023-03-14T16:42:56;7.60;99.90
47961;DHT22;33721;48.852;9.936;2023-03-14T16:45:21;7.50;99.90
47961;DHT22;33721;48.852;9.936;2023-03-14T16:47:47;7.40;99.90
47961;DHT22;33721;48.852;9.936;2023-03-14T16:50:13;7.30;99.90
47961;DHT22;33721;48.852;9.936;2023-03-14T16:52:38;7.20;99.90
47961;DHT22;33721;48.852;9.936;2023-03-14T16:55:04;7.10;99.90
47961;DHT22;33721;48.852;9.936;2023-03-14T16:57:32;7.10;99.90
47961;DHT22;33721;48.852;9.936;2023-03-14T16:59:58;7.00;99.90
47961;DHT22;33721;48.852;9.936;2023-03-14T17:02:23;6.90;99.90
47961;DHT22;33721;48.852;9.936;2023-03-14T17:04:49;6.80;99.90